Mc Cordsville, Indiana
Current Conditions -  °F | °C
As of 3:14 PM on Thursday 23 Oct 2014 (Local Time) from KMQJ Reporting Station
Clear Clear  
Wind Chill: 57°   Ceiling: Unl
Heat Index: 57°   Visibility: 10mi
Dew Point: 28°   Wind: 5mph
Humidity: 33%   Direction: 210°SSW
Pressure: 30.18"   Gusts: NA
Location:  39.9249°N, 85.9217°W
Report Text: KMQJ 231914Z AUTO 21004KT 10SM CLR 14/M02 A3018 RMK AO1
Loading
Personal Weather Stations






























Interactive Weather Map
Tropical Storm Tracking
New forecast layout! Learn more

10-Day Weather Forecast

Advertisements
Track Severe Weather on mobile